createdAt,value
2019-05-01T00:01:30.988Z,15.80
2019-05-01T00:03:58.117Z,15.53
2019-05-01T00:06:25.406Z,17.02
2019-05-01T00:08:52.469Z,17.48
2019-05-01T00:11:19.508Z,17.12
2019-05-01T00:13:46.566Z,16.73
2019-05-01T00:16:13.603Z,16.73
2019-05-01T00:18:40.910Z,17.75
2019-05-01T00:21:07.943Z,16.87
2019-05-01T00:23:35.262Z,18.20
2019-05-01T00:26:02.411Z,18.00
2019-05-01T00:28:29.433Z,17.02
2019-05-01T00:30:56.463Z,16.90
2019-05-01T00:33:23.878Z,17.37
2019-05-01T00:35:50.918Z,17.65
2019-05-01T00:38:18.274Z,18.30
2019-05-01T00:40:45.323Z,18.07
2019-05-01T00:43:12.414Z,19.27
2019-05-01T00:45:39.454Z,18.20
2019-05-01T00:48:06.584Z,17.48
2019-05-01T00:50:33.624Z,18.10
2019-05-01T00:53:00.937Z,18.15
2019-05-01T00:55:28.227Z,17.95
2019-05-01T00:57:55.526Z,18.75
2019-05-01T01:00:22.575Z,19.77
2019-05-01T01:02:49.631Z,18.55
2019-05-01T01:05:17.030Z,18.17
2019-05-01T01:07:44.386Z,18.62
2019-05-01T01:10:11.679Z,17.67
2019-05-01T01:12:38.728Z,18.27
2019-05-01T01:15:05.778Z,17.90
2019-05-01T01:17:33.094Z,20.00
2019-05-01T01:20:00.222Z,18.95
2019-05-01T01:22:27.596Z,19.45
2019-05-01T01:24:54.648Z,20.88
2019-05-01T01:27:21.692Z,22.22
2019-05-01T01:29:49.046Z,22.05
2019-05-01T01:32:16.092Z,20.82
2019-05-01T01:34:43.151Z,21.15
2019-05-01T01:37:10.500Z,22.13
2019-05-01T01:39:37.551Z,25.68
2019-05-01T01:42:04.595Z,23.02
2019-05-01T01:44:31.670Z,21.75
2019-05-01T01:46:58.707Z,23.38
2019-05-01T01:49:26.042Z,22.17
2019-05-01T01:51:53.329Z,24.00
2019-05-01T01:54:20.649Z,25.02
2019-05-01T01:56:47.928Z,26.20
2019-05-01T01:59:15.280Z,26.42
2019-05-01T02:01:42.652Z,24.77
2019-05-01T02:04:12.043Z,24.18
2019-05-01T02:06:39.082Z,24.10
2019-05-01T02:09:06.151Z,24.10
2019-05-01T02:11:35.076Z,23.60
2019-05-01T02:14:02.132Z,25.90
2019-05-01T02:16:29.415Z,27.00
2019-05-01T02:18:56.462Z,26.27
2019-05-01T02:21:23.779Z,24.47
2019-05-01T02:23:50.819Z,26.45
2019-05-01T02:26:18.109Z,24.72
2019-05-01T02:28:45.394Z,22.93
2019-05-01T02:31:27.717Z,23.40
2019-05-01T02:33:41.168Z,21.65
2019-05-01T02:36:08.464Z,21.30
2019-05-01T02:38:35.753Z,19.52
2019-05-01T02:41:03.059Z,18.75
2019-05-01T02:43:30.334Z,18.60
2019-05-01T02:45:57.628Z,19.37
2019-05-01T02:48:24.666Z,18.52
2019-05-01T02:50:51.720Z,20.55
2019-05-01T02:53:19.021Z,20.10
2019-05-01T02:55:46.071Z,19.55
2019-05-01T02:58:13.111Z,19.82
2019-05-01T03:00:40.486Z,20.32
2019-05-01T03:03:07.830Z,20.40
2019-05-01T03:05:36.203Z,20.45
2019-05-01T03:08:03.241Z,21.17
2019-05-01T03:10:30.305Z,20.02
2019-05-01T03:12:57.658Z,21.48
2019-05-01T03:15:25.011Z,19.90
2019-05-01T03:17:52.058Z,18.87
2019-05-01T03:20:19.114Z,22.10
2019-05-01T03:22:46.463Z,20.75
2019-05-01T03:25:13.762Z,21.90
2019-05-01T03:27:40.801Z,21.07
2019-05-01T03:30:08.119Z,20.50
2019-05-01T03:32:36.800Z,22.98
2019-05-01T03:35:03.842Z,23.75
2019-05-01T03:37:31.123Z,23.15
2019-05-01T03:39:58.176Z,22.07
2019-05-01T03:42:25.551Z,23.65
2019-05-01T03:44:52.861Z,22.25
2019-05-01T03:47:19.911Z,22.13
2019-05-01T03:49:46.956Z,21.20
2019-05-01T03:52:14.337Z,21.65
2019-05-01T03:54:41.370Z,22.10
2019-05-01T03:57:08.421Z,21.90
2019-05-01T03:59:35.773Z,23.62
2019-05-01T04:02:02.827Z,23.42
2019-05-01T04:04:29.865Z,21.77
2019-05-01T04:06:56.930Z,22.48
2019-05-01T04:09:24.261Z,24.82
2019-05-01T04:11:51.640Z,25.00
2019-05-01T04:14:18.978Z,22.77
2019-05-01T04:16:46.327Z,25.00
2019-05-01T04:19:13.372Z,23.87
2019-05-01T04:21:40.425Z,24.23
2019-05-01T04:24:07.469Z,24.02
2019-05-01T04:26:34.526Z,26.17
2019-05-01T04:29:01.920Z,26.07
2019-05-01T04:31:28.975Z,26.57
2019-05-01T04:33:56.448Z,25.32
2019-05-01T04:36:23.620Z,24.63
2019-05-01T04:38:50.936Z,23.32
2019-05-01T04:41:18.259Z,22.40
2019-05-01T04:43:45.315Z,23.90
2019-05-01T04:46:12.356Z,22.65
2019-05-01T04:48:39.418Z,23.55
2019-05-01T04:51:06.762Z,22.62
2019-05-01T04:53:34.049Z,21.17
2019-05-01T04:56:01.452Z,21.45
2019-05-01T04:58:28.826Z,21.50
2019-05-01T05:00:55.870Z,20.23
2019-05-01T05:03:22.934Z,20.32
2019-05-01T05:05:49.978Z,21.27
2019-05-01T05:08:17.032Z,21.12
2019-05-01T05:10:44.350Z,19.82
2019-05-01T05:13:11.646Z,22.75
2019-05-01T05:15:38.698Z,22.48
2019-05-01T05:18:05.749Z,24.30
2019-05-01T05:20:33.056Z,24.25
2019-05-01T05:23:00.122Z,23.60
2019-05-01T05:25:27.168Z,24.32
2019-05-01T05:27:54.507Z,23.67
2019-05-01T05:30:24.984Z,23.52
2019-05-01T05:32:52.288Z,24.25
2019-05-01T05:35:19.664Z,24.07
2019-05-01T05:37:46.713Z,23.60
2019-05-01T05:40:13.783Z,23.30
2019-05-01T05:42:41.054Z,22.62
2019-05-01T05:45:08.475Z,22.95
2019-05-01T05:47:35.754Z,22.80
2019-05-01T05:50:02.812Z,21.37
2019-05-01T05:52:29.859Z,22.13
2019-05-01T05:54:57.260Z,21.27
2019-05-01T05:57:24.612Z,21.23
2019-05-01T05:59:51.970Z,20.52
2019-05-01T06:02:19.014Z,20.95
2019-05-01T06:04:46.073Z,21.07
2019-05-01T06:07:13.416Z,20.65
2019-05-01T06:09:44.778Z,21.60
2019-05-01T06:12:10.194Z,20.57
2019-05-01T06:14:37.632Z,21.62
2019-05-01T06:17:04.682Z,22.35
2019-05-01T06:19:31.988Z,23.67
2019-05-01T06:21:59.035Z,23.42
2019-05-01T06:24:27.257Z,24.92
2019-05-01T06:26:54.306Z,23.47
2019-05-01T06:29:21.663Z,24.65
2019-05-01T06:31:49.015Z,22.37
2019-05-01T06:34:16.372Z,23.95
2019-05-01T06:36:44.181Z,20.20
2019-05-01T06:39:13.384Z,19.55
2019-05-01T06:41:42.655Z,19.40
2019-05-01T06:44:09.477Z,19.27
2019-05-01T06:46:36.849Z,19.48
2019-05-01T06:49:06.752Z,19.62
2019-05-01T06:51:32.646Z,21.02
2019-05-01T06:53:59.696Z,20.55
2019-05-01T06:56:27.074Z,20.20
2019-05-01T06:58:55.237Z,21.40
2019-05-01T07:01:24.064Z,20.85
2019-05-01T07:04:03.749Z,21.48
2019-05-01T07:06:26.113Z,21.90
2019-05-01T07:08:51.494Z,21.57
2019-05-01T07:11:18.882Z,22.22
2019-05-01T07:13:58.767Z,21.97
2019-05-01T07:16:25.824Z,19.82
2019-05-01T07:18:58.073Z,18.95
2019-05-01T07:21:27.696Z,19.10
2019-05-01T07:23:54.404Z,18.45
2019-05-01T07:26:22.860Z,18.65
2019-05-01T07:28:50.343Z,19.15
2019-05-01T07:31:17.713Z,19.65
2019-05-01T07:33:47.038Z,18.85
2019-05-01T07:36:16.296Z,18.40
2019-05-01T07:38:42.589Z,18.80
2019-05-01T07:41:12.406Z,19.87
2019-05-01T07:43:38.748Z,17.32
2019-05-01T07:46:06.128Z,18.12
2019-05-01T07:48:36.272Z,16.73
2019-05-01T07:51:06.823Z,17.50
2019-05-01T07:53:30.929Z,17.85
2019-05-01T07:55:58.310Z,18.15
2019-05-01T07:58:25.363Z,17.52
2019-05-01T08:00:52.713Z,18.02
2019-05-01T08:03:19.774Z,17.05
2019-05-01T08:05:46.973Z,17.52
2019-05-01T08:08:14.050Z,17.05
2019-05-01T08:10:41.421Z,16.95
2019-05-01T08:13:08.481Z,16.15
2019-05-01T08:15:35.524Z,16.73
2019-05-01T08:18:02.588Z,15.65
2019-05-01T08:20:29.915Z,13.00
2019-05-01T08:22:56.973Z,13.88
2019-05-01T08:25:24.320Z,13.40
2019-05-01T08:27:56.414Z,13.95
2019-05-01T08:30:20.420Z,15.72
2019-05-01T08:32:47.821Z,15.13
2019-05-01T08:35:14.872Z,14.75
2019-05-01T08:37:42.339Z,13.58
2019-05-01T08:40:09.387Z,13.70
2019-05-01T08:42:37.849Z,12.55
2019-05-01T08:45:06.806Z,13.35
2019-05-01T08:47:34.422Z,13.22
2019-05-01T08:50:01.470Z,12.68
2019-05-01T08:52:28.789Z,13.20
2019-05-01T08:54:56.163Z,12.98
2019-05-01T08:57:23.229Z,11.88
2019-05-01T08:59:50.265Z,11.53
2019-05-01T09:02:17.631Z,12.35
2019-05-01T09:04:44.680Z,12.40
2019-05-01T09:07:14.733Z,11.48
2019-05-01T09:09:45.441Z,12.93
2019-05-01T09:12:11.906Z,12.37
2019-05-01T09:14:37.976Z,11.88
2019-05-01T09:17:05.024Z,12.73
2019-05-01T09:19:32.405Z,12.75
2019-05-01T09:22:00.526Z,12.82
2019-05-01T09:24:29.272Z,12.18
2019-05-01T09:26:56.490Z,11.88
2019-05-01T09:29:23.545Z,12.13
2019-05-01T09:31:50.893Z,11.25
2019-05-01T09:34:19.269Z,12.73
2019-05-01T09:36:47.347Z,12.63
2019-05-01T09:39:14.706Z,9.95
2019-05-01T09:41:43.031Z,10.45
2019-05-01T09:44:12.124Z,9.08
2019-05-01T09:46:39.550Z,8.68
2019-05-01T09:49:06.887Z,8.95
2019-05-01T09:51:34.256Z,9.13
2019-05-01T09:54:05.612Z,8.20
2019-05-01T09:56:31.727Z,8.85
2019-05-01T09:58:58.780Z,7.42
2019-05-01T10:01:31.546Z,6.40
2019-05-01T10:03:56.463Z,7.42
2019-05-01T10:06:23.626Z,6.65
2019-05-01T10:08:50.928Z,7.22
2019-05-01T10:11:19.233Z,8.43
2019-05-01T10:13:46.598Z,8.10
2019-05-01T10:16:13.640Z,8.90
2019-05-01T10:18:40.987Z,8.93
2019-05-01T10:21:08.338Z,8.25
2019-05-01T10:23:35.695Z,8.50
2019-05-01T10:26:02.730Z,8.33
2019-05-01T10:28:29.771Z,8.15
2019-05-01T10:30:57.143Z,8.35
2019-05-01T10:33:24.515Z,8.50
2019-05-01T10:35:52.878Z,8.40
2019-05-01T10:38:20.237Z,9.10
2019-05-01T10:40:47.614Z,8.38
2019-05-01T10:43:14.772Z,9.70
2019-05-01T10:45:41.828Z,8.33
2019-05-01T10:48:09.162Z,8.18
2019-05-01T10:50:36.215Z,8.85
2019-05-01T10:53:03.526Z,8.53
2019-05-01T10:55:30.645Z,9.38
2019-05-01T10:57:57.953Z,8.70
2019-05-01T11:00:25.291Z,8.33
2019-05-01T11:02:52.403Z,7.65
2019-05-01T11:05:19.450Z,7.10
2019-05-01T11:07:46.735Z,7.65
2019-05-01T11:10:14.976Z,7.58
2019-05-01T11:12:42.283Z,9.03
2019-05-01T11:15:09.587Z,8.13
2019-05-01T11:17:36.623Z,7.50
2019-05-01T11:20:03.924Z,7.60
2019-05-01T11:22:31.298Z,8.23
2019-05-01T11:24:58.649Z,7.60
2019-05-01T11:27:26.011Z,7.55
2019-05-01T11:29:53.051Z,7.85
2019-05-01T11:32:21.073Z,6.72
2019-05-01T11:34:48.376Z,7.75
2019-05-01T11:37:15.758Z,7.25
2019-05-01T11:39:43.089Z,6.83
2019-05-01T11:42:10.660Z,7.83
2019-05-01T11:44:37.698Z,6.87
2019-05-01T11:47:04.752Z,6.95
2019-05-01T11:49:31.786Z,6.78
2019-05-01T11:51:59.170Z,6.87
2019-05-01T11:54:26.208Z,6.78
2019-05-01T11:56:53.254Z,6.65
2019-05-01T11:59:21.782Z,6.58
2019-05-01T12:01:49.183Z,5.97
2019-05-01T12:04:16.213Z,6.30
2019-05-01T12:06:43.266Z,5.87
2019-05-01T12:09:10.305Z,6.65
2019-05-01T12:11:39.060Z,6.37
2019-05-01T12:14:06.098Z,6.10
2019-05-01T12:16:33.151Z,6.62
2019-05-01T12:19:01.311Z,5.90
2019-05-01T12:21:29.337Z,7.08
2019-05-01T12:23:56.376Z,6.53
2019-05-01T12:26:23.435Z,6.15
2019-05-01T12:28:50.473Z,6.42
2019-05-01T12:31:17.649Z,6.30
2019-05-01T12:33:45.819Z,6.12
2019-05-01T12:36:13.111Z,5.85
2019-05-01T12:38:40.149Z,5.37
2019-05-01T12:41:08.345Z,5.80
2019-05-01T12:43:35.380Z,5.70
2019-05-01T12:46:02.419Z,5.95
2019-05-01T12:48:29.486Z,5.55
2019-05-01T12:50:56.531Z,6.28
2019-05-01T12:53:23.568Z,5.90
2019-05-01T12:55:51.738Z,5.20
2019-05-01T12:58:18.795Z,5.58
2019-05-01T13:00:45.835Z,5.87
2019-05-01T13:03:12.897Z,5.47
2019-05-01T13:05:40.068Z,5.50
2019-05-01T13:08:07.480Z,12.73
2019-05-01T13:10:34.531Z,6.87
2019-05-01T13:13:01.882Z,6.00
2019-05-01T13:15:29.222Z,5.70
2019-05-01T13:17:56.574Z,6.35
2019-05-01T13:20:23.617Z,6.37
2019-05-01T13:22:50.664Z,6.17
2019-05-01T13:25:17.701Z,6.30
2019-05-01T13:27:44.754Z,6.58
2019-05-01T13:30:11.794Z,5.53
2019-05-01T13:32:38.843Z,6.12
2019-05-01T13:35:06.239Z,5.65
2019-05-01T13:37:34.360Z,5.47
2019-05-01T13:40:01.393Z,6.28
2019-05-01T13:42:29.603Z,5.95
2019-05-01T13:44:56.903Z,6.05
2019-05-01T13:47:24.249Z,5.97
2019-05-01T13:49:51.318Z,5.90
2019-05-01T13:52:18.355Z,5.83
2019-05-01T13:54:45.410Z,5.55
2019-05-01T13:57:12.723Z,10.55
2019-05-01T13:59:40.076Z,6.40
2019-05-01T14:02:08.375Z,6.08
2019-05-01T14:04:36.844Z,6.35
2019-05-01T14:07:15.825Z,5.75
2019-05-01T14:09:33.284Z,5.60
2019-05-01T14:12:14.162Z,6.33
2019-05-01T14:14:41.209Z,6.37
2019-05-01T14:17:08.253Z,6.47
2019-05-01T14:19:35.304Z,6.17
2019-05-01T14:22:02.343Z,6.00
2019-05-01T14:24:29.404Z,6.22
2019-05-01T14:26:56.451Z,5.80
2019-05-01T14:29:23.736Z,5.90
2019-05-01T14:31:51.055Z,5.55
2019-05-01T14:34:18.103Z,5.10
2019-05-01T14:36:45.454Z,5.67
2019-05-01T14:39:12.506Z,5.40
2019-05-01T14:41:39.785Z,5.55
2019-05-01T14:44:07.113Z,5.95
2019-05-01T14:46:34.491Z,5.72
2019-05-01T14:49:01.828Z,5.78
2019-05-01T14:51:28.861Z,5.30
2019-05-01T14:53:56.224Z,5.78
2019-05-01T14:56:23.271Z,6.22
2019-05-01T14:58:50.729Z,5.58
2019-05-01T15:01:18.014Z,4.60
2019-05-01T15:03:45.375Z,5.55
2019-05-01T15:06:12.698Z,5.20
2019-05-01T15:08:40.991Z,4.87
2019-05-01T15:11:08.045Z,5.47
2019-05-01T15:18:52.833Z,5.78
2019-05-01T15:21:22.071Z,4.75
2019-05-01T15:23:53.718Z,4.60
2019-05-01T15:26:24.927Z,5.15
2019-05-01T15:29:02.409Z,5.30
2019-05-01T15:31:29.610Z,5.30
2019-05-01T15:33:56.840Z,5.30
2019-05-01T15:36:28.162Z,4.97
2019-05-01T15:39:08.758Z,5.05
2019-05-01T15:46:43.857Z,4.10
2019-05-01T15:49:21.015Z,4.70
2019-05-01T15:54:23.738Z,5.12
2019-05-01T15:56:50.803Z,4.60
2019-05-01T15:59:25.457Z,4.90
2019-05-01T16:12:23.651Z,4.90
2019-05-01T16:14:51.168Z,4.35
2019-05-01T16:20:22.554Z,4.78
2019-05-01T16:22:49.608Z,4.90
2019-05-01T16:27:54.172Z,4.40
2019-05-01T16:30:27.518Z,4.15
2019-05-01T16:32:54.695Z,5.00
2019-05-01T16:35:22.232Z,4.42
2019-05-01T16:37:51.460Z,4.40
2019-05-01T16:40:20.686Z,4.78
2019-05-01T16:42:48.929Z,5.08
2019-05-01T16:45:18.143Z,15.48
2019-05-01T16:47:57.309Z,33.05
2019-05-01T16:50:25.834Z,13.22
2019-05-01T16:53:01.468Z,6.03
2019-05-01T16:55:30.809Z,4.12
2019-05-01T17:00:46.677Z,4.03
2019-05-01T17:03:15.157Z,4.20
2019-05-01T17:05:48.498Z,4.37
2019-05-01T17:08:20.025Z,4.58
2019-05-01T17:16:10.397Z,4.12
2019-05-01T17:18:37.426Z,4.03
2019-05-01T17:21:04.679Z,4.35
2019-05-01T17:23:32.838Z,4.10
2019-05-01T17:26:00.106Z,3.80
2019-05-01T17:31:14.582Z,4.33
2019-05-01T17:33:55.636Z,3.87
2019-05-01T17:44:12.730Z,5.03
2019-05-01T17:46:41.916Z,5.53
2019-05-01T17:49:16.837Z,5.22
2019-05-01T17:51:46.360Z,5.15
2019-05-01T17:54:25.652Z,4.70
2019-05-01T17:56:53.705Z,5.08
2019-05-01T17:59:30.828Z,4.60
2019-05-01T18:01:59.285Z,5.30
2019-05-01T18:04:27.496Z,5.17
2019-05-01T18:06:59.783Z,5.08
2019-05-01T18:14:45.890Z,5.47
2019-05-01T18:17:17.048Z,5.47
2019-05-01T18:19:44.087Z,5.50
2019-05-01T18:24:44.910Z,5.72
2019-05-01T18:27:14.696Z,5.95
2019-05-01T18:29:49.631Z,5.47
2019-05-01T18:34:51.787Z,6.62
2019-05-01T18:40:13.541Z,6.35
2019-05-01T18:42:44.829Z,6.25
2019-05-01T18:45:13.029Z,6.10
2019-05-01T18:47:45.223Z,6.53
2019-05-01T18:50:20.546Z,7.00
2019-05-01T18:55:32.474Z,7.08
2019-05-01T18:58:00.660Z,6.47
2019-05-01T19:00:28.814Z,6.97
2019-05-01T19:02:59.588Z,6.70
2019-05-01T19:05:30.886Z,6.87
2019-05-01T19:08:03.182Z,7.20
2019-05-01T19:10:38.195Z,7.28
2019-05-01T19:13:07.677Z,7.95
2019-05-01T19:15:43.042Z,7.10
2019-05-01T19:18:10.135Z,7.22
2019-05-01T19:20:37.195Z,8.15
2019-05-01T19:23:04.516Z,7.70
2019-05-01T19:25:32.944Z,6.55
2019-05-01T19:30:34.312Z,7.12
2019-05-01T19:33:01.769Z,6.85
2019-05-01T19:35:38.062Z,7.20
2019-05-01T19:38:10.510Z,7.37
2019-05-01T19:40:42.911Z,7.65
2019-05-01T19:43:12.177Z,7.97
2019-05-01T19:45:52.372Z,8.05
2019-05-01T19:50:59.816Z,8.58
2019-05-01T19:53:31.038Z,8.43
2019-05-01T19:56:04.124Z,7.95
2019-05-01T19:58:31.385Z,8.78
2019-05-01T20:01:04.530Z,8.70
2019-05-01T20:03:36.099Z,7.75
2019-05-01T20:06:07.672Z,8.10
2019-05-01T20:08:34.115Z,8.20
2019-05-01T20:11:09.695Z,8.13
2019-05-01T20:13:38.351Z,8.53
2019-05-01T20:16:08.760Z,9.48
2019-05-01T20:18:37.973Z,8.33
2019-05-01T20:21:05.279Z,8.53
2019-05-01T20:23:33.238Z,9.25
2019-05-01T20:26:08.422Z,9.23
2019-05-01T20:31:13.807Z,8.88
2019-05-01T20:33:44.534Z,8.93
2019-05-01T20:36:12.045Z,9.25
2019-05-01T20:38:39.399Z,8.78
2019-05-01T20:41:10.364Z,9.00
2019-05-01T20:43:38.144Z,9.80
2019-05-01T20:46:07.076Z,9.35
2019-05-01T20:48:34.110Z,9.63
2019-05-01T20:51:01.518Z,9.08
2019-05-01T20:53:28.571Z,9.15
2019-05-01T20:55:55.611Z,9.68
2019-05-01T20:58:22.968Z,9.35
2019-05-01T21:00:53.285Z,9.53
2019-05-01T21:03:19.609Z,9.18
2019-05-01T21:05:46.840Z,8.53
2019-05-01T21:08:13.896Z,8.73
2019-05-01T21:10:50.350Z,9.35
2019-05-01T21:13:10.033Z,9.83
2019-05-01T21:15:37.432Z,9.60
2019-05-01T21:18:04.757Z,9.15
2019-05-01T21:20:33.785Z,9.78
2019-05-01T21:23:05.834Z,8.05
2019-05-01T21:25:30.017Z,8.70
2019-05-01T21:27:57.374Z,9.85
2019-05-01T21:30:24.433Z,9.43
2019-05-01T21:32:51.480Z,9.03
2019-05-01T21:35:18.599Z,8.65
2019-05-01T21:37:45.638Z,8.88
2019-05-01T21:40:12.982Z,9.23
2019-05-01T21:42:40.375Z,10.23
2019-05-01T21:45:07.430Z,9.53
2019-05-01T21:47:34.539Z,9.05
2019-05-01T21:50:03.231Z,9.13
2019-05-01T21:52:30.697Z,8.13
2019-05-01T21:54:57.749Z,8.45
2019-05-01T21:57:27.192Z,7.60
2019-05-01T21:59:55.309Z,7.80
2019-05-01T22:02:22.782Z,7.72
2019-05-01T22:04:49.838Z,8.38
2019-05-01T22:07:16.883Z,8.63
2019-05-01T22:09:45.623Z,8.88
2019-05-01T22:12:14.262Z,9.08
2019-05-01T22:14:41.486Z,9.08
2019-05-01T22:17:08.535Z,9.35
2019-05-01T22:19:35.657Z,8.35
2019-05-01T22:22:02.953Z,9.88
2019-05-01T22:24:31.078Z,8.95
2019-05-01T22:26:58.115Z,8.80
2019-05-01T22:29:27.296Z,9.90
2019-05-01T22:31:57.454Z,8.43
2019-05-01T22:34:22.903Z,8.63
2019-05-01T22:36:51.210Z,8.95
2019-05-01T22:39:18.534Z,8.50
2019-05-01T22:41:45.646Z,9.25
2019-05-01T22:44:17.607Z,8.45
2019-05-01T22:46:41.437Z,8.88
2019-05-01T22:49:08.777Z,9.40
2019-05-01T22:51:36.077Z,9.60
2019-05-01T22:54:03.214Z,9.03
2019-05-01T22:56:30.550Z,8.83
2019-05-01T22:58:57.893Z,9.10
2019-05-01T23:01:25.194Z,8.95
2019-05-01T23:03:52.234Z,8.90
2019-05-01T23:06:19.547Z,9.85
2019-05-01T23:08:46.666Z,8.85
2019-05-01T23:11:20.148Z,8.68
2019-05-01T23:13:42.716Z,9.45
2019-05-01T23:16:09.772Z,9.08
2019-05-01T23:18:37.064Z,9.38
2019-05-01T23:21:04.122Z,9.18
2019-05-01T23:23:31.447Z,9.30
2019-05-01T23:25:58.795Z,8.45
2019-05-01T23:28:25.844Z,9.50
2019-05-01T23:30:52.899Z,9.50
2019-05-01T23:33:19.945Z,10.13
2019-05-01T23:35:47.005Z,9.83
2019-05-01T23:38:14.051Z,9.18
2019-05-01T23:40:41.406Z,9.33
2019-05-01T23:43:08.431Z,8.95
2019-05-01T23:45:35.502Z,8.73
2019-05-01T23:48:02.841Z,9.10
2019-05-01T23:50:31.118Z,9.33
2019-05-01T23:52:58.471Z,8.63
2019-05-01T23:55:25.511Z,9.30
2019-05-01T23:57:52.567Z,9.33
